createdAt,value
2022-07-26T00:01:48.847Z,2.35
2022-07-26T00:04:16.605Z,2.10
2022-07-26T00:06:44.341Z,2.70
2022-07-26T00:09:11.960Z,2.50
2022-07-26T00:11:39.624Z,2.55
2022-07-26T00:14:09.377Z,2.42
2022-07-26T00:16:37.868Z,2.00
2022-07-26T00:19:08.072Z,2.30
2022-07-26T00:21:37.423Z,2.53
2022-07-26T00:24:08.852Z,2.40
2022-07-26T00:26:36.552Z,2.30
2022-07-26T00:29:05.254Z,2.42
2022-07-26T00:31:33.068Z,2.80
2022-07-26T00:34:00.742Z,3.03
2022-07-26T00:36:29.168Z,2.50
2022-07-26T00:38:56.725Z,2.40
2022-07-26T00:41:24.278Z,2.60
2022-07-26T00:44:00.206Z,2.20
2022-07-26T00:46:28.077Z,2.80
2022-07-26T00:48:55.842Z,3.20
2022-07-26T00:51:23.910Z,2.72
2022-07-26T00:53:51.463Z,2.80
2022-07-26T00:56:22.549Z,2.50
2022-07-26T00:58:50.262Z,2.78
2022-07-26T01:01:17.874Z,2.80
2022-07-26T01:03:45.676Z,2.30
2022-07-26T01:06:16.146Z,2.47
2022-07-26T01:08:44.069Z,3.00
2022-07-26T01:11:11.668Z,2.80
2022-07-26T01:13:49.622Z,2.63
2022-07-26T01:16:18.126Z,2.47
2022-07-26T01:18:45.711Z,2.45
2022-07-26T01:21:14.327Z,2.50
2022-07-26T01:23:44.038Z,2.60
2022-07-26T01:26:12.049Z,2.38
2022-07-26T01:28:41.191Z,2.58
2022-07-26T01:31:09.230Z,2.50
2022-07-26T01:33:37.015Z,2.37
2022-07-26T01:36:04.700Z,2.45
2022-07-26T01:38:32.210Z,2.20
2022-07-26T01:40:59.805Z,2.67
2022-07-26T01:43:27.973Z,2.22
2022-07-26T01:45:55.601Z,2.20
2022-07-26T01:48:23.431Z,2.50
2022-07-26T01:50:51.032Z,2.42
2022-07-26T01:53:18.787Z,2.80
2022-07-26T01:55:46.356Z,2.70
2022-07-26T01:58:13.953Z,2.97
2022-07-26T02:00:41.662Z,2.75
2022-07-26T02:03:09.555Z,3.15
2022-07-26T02:05:37.196Z,3.38
2022-07-26T02:08:05.142Z,2.97
2022-07-26T02:10:51.034Z,2.60
2022-07-26T02:13:19.169Z,2.60
2022-07-26T02:15:46.818Z,2.60
2022-07-26T02:18:14.431Z,3.08
2022-07-26T02:20:41.980Z,2.90
2022-07-26T02:23:09.527Z,3.20
2022-07-26T02:25:37.157Z,2.75
2022-07-26T02:28:04.844Z,3.45
2022-07-26T02:30:32.486Z,4.75
2022-07-26T02:33:01.311Z,5.55
2022-07-26T02:35:28.946Z,4.90
2022-07-26T02:37:56.470Z,4.20
2022-07-26T02:40:23.989Z,3.42
2022-07-26T02:42:51.634Z,3.10
2022-07-26T02:45:19.280Z,3.00
2022-07-26T02:47:51.021Z,3.03
2022-07-26T02:50:19.833Z,3.13
2022-07-26T02:52:48.596Z,3.15
2022-07-26T02:55:17.331Z,3.13
2022-07-26T02:57:46.881Z,3.33
2022-07-26T03:00:17.503Z,2.97
2022-07-26T03:02:45.295Z,3.13
2022-07-26T03:05:12.973Z,3.13
2022-07-26T03:07:40.671Z,2.88
2022-07-26T03:10:09.115Z,3.20
2022-07-26T03:12:38.307Z,3.43
2022-07-26T03:15:07.038Z,3.30
2022-07-26T03:17:34.621Z,2.83
2022-07-26T03:20:02.875Z,3.35
2022-07-26T03:22:31.284Z,3.20
2022-07-26T03:24:59.130Z,3.87
2022-07-26T03:27:26.623Z,3.70
2022-07-26T03:29:54.157Z,4.03
2022-07-26T03:32:21.735Z,3.55
2022-07-26T03:34:49.259Z,3.67
2022-07-26T03:37:18.112Z,3.30
2022-07-26T03:39:45.755Z,3.83
2022-07-26T03:42:13.338Z,3.25
2022-07-26T03:44:41.127Z,3.58
2022-07-26T03:47:08.815Z,3.88
2022-07-26T03:49:36.426Z,3.63
2022-07-26T03:52:04.396Z,3.53
2022-07-26T03:54:32.035Z,3.50
2022-07-26T03:56:59.512Z,3.83
2022-07-26T03:59:27.666Z,4.15
2022-07-26T04:01:58.150Z,4.10
2022-07-26T04:04:26.585Z,4.32
2022-07-26T04:06:55.262Z,4.00
2022-07-26T04:09:24.298Z,3.60
2022-07-26T04:11:51.826Z,4.43
2022-07-26T04:14:19.360Z,4.67
2022-07-26T04:16:47.014Z,4.40
2022-07-26T04:19:14.608Z,4.53
2022-07-26T04:21:42.114Z,4.40
2022-07-26T04:24:10.662Z,4.85
2022-07-26T04:26:38.502Z,4.07
2022-07-26T04:29:06.020Z,4.32
2022-07-26T04:31:36.383Z,4.28
2022-07-26T04:34:04.243Z,3.92
2022-07-26T04:36:31.998Z,3.80
2022-07-26T04:38:59.440Z,3.80
2022-07-26T04:41:27.022Z,4.45
2022-07-26T04:43:54.517Z,3.90
2022-07-26T04:46:22.129Z,4.30
2022-07-26T04:48:49.673Z,4.05
2022-07-26T04:51:17.257Z,4.60
2022-07-26T04:53:44.757Z,4.10
2022-07-26T04:56:12.454Z,4.63
2022-07-26T04:58:40.116Z,4.15
2022-07-26T05:01:10.455Z,4.43
2022-07-26T05:03:39.407Z,4.30
2022-07-26T05:06:07.240Z,4.25
2022-07-26T05:08:34.810Z,4.28
2022-07-26T05:11:02.475Z,4.30
2022-07-26T05:13:31.055Z,4.35
2022-07-26T05:16:00.150Z,4.33
2022-07-26T05:18:31.486Z,4.22
2022-07-26T05:20:59.720Z,3.95
2022-07-26T05:23:27.985Z,4.15
2022-07-26T05:25:56.652Z,4.53
2022-07-26T05:28:24.174Z,4.40
2022-07-26T05:30:52.033Z,4.35
2022-07-26T05:33:19.859Z,4.22
2022-07-26T05:35:47.462Z,4.05
2022-07-26T05:38:15.046Z,4.05
2022-07-26T05:40:47.212Z,4.10
2022-07-26T05:43:18.563Z,3.78
2022-07-26T05:45:46.251Z,4.03
2022-07-26T05:48:14.253Z,4.07
2022-07-26T05:50:44.217Z,4.28
2022-07-26T05:53:11.753Z,4.43
2022-07-26T05:55:39.281Z,4.05
2022-07-26T05:58:06.912Z,3.95
2022-07-26T06:00:34.666Z,4.90
2022-07-26T06:03:22.274Z,4.93
2022-07-26T06:05:54.827Z,4.53
2022-07-26T06:08:23.020Z,4.63
2022-07-26T06:10:51.298Z,4.13
2022-07-26T06:13:19.162Z,4.28
2022-07-26T06:15:47.393Z,4.10
2022-07-26T06:18:15.045Z,4.73
2022-07-26T06:20:45.031Z,4.60
2022-07-26T06:23:13.450Z,4.78
2022-07-26T06:25:41.244Z,4.50
2022-07-26T06:28:10.659Z,4.30
2022-07-26T06:30:39.515Z,4.33
2022-07-26T06:33:08.089Z,4.68
2022-07-26T06:35:37.437Z,3.92
2022-07-26T06:38:07.237Z,4.57
2022-07-26T06:40:35.539Z,4.50
2022-07-26T06:43:04.653Z,4.17
2022-07-26T06:45:33.414Z,4.03
2022-07-26T06:48:00.989Z,4.35
2022-07-26T06:50:28.699Z,4.80
2022-07-26T06:52:56.418Z,4.78
2022-07-26T06:55:24.928Z,4.13
2022-07-26T06:57:52.467Z,4.22
2022-07-26T07:00:20.280Z,4.32
2022-07-26T07:02:47.938Z,4.90
2022-07-26T07:05:15.570Z,4.68
2022-07-26T07:07:43.870Z,4.70
2022-07-26T07:10:12.735Z,4.50
2022-07-26T07:12:40.893Z,4.20
2022-07-26T07:15:08.834Z,4.15
2022-07-26T07:17:36.495Z,3.92
2022-07-26T07:20:05.655Z,4.00
2022-07-26T07:22:33.310Z,4.30
2022-07-26T07:25:01.173Z,3.90
2022-07-26T07:27:31.072Z,4.00
2022-07-26T07:29:58.616Z,4.13
2022-07-26T07:32:26.311Z,4.10
2022-07-26T07:34:53.995Z,4.20
2022-07-26T07:37:21.720Z,4.10
2022-07-26T07:39:51.029Z,4.50
2022-07-26T07:42:19.782Z,4.25
2022-07-26T07:44:47.809Z,4.40
2022-07-26T07:47:15.659Z,4.10
2022-07-26T07:49:43.838Z,3.83
2022-07-26T07:52:11.497Z,3.97
2022-07-26T07:54:39.634Z,4.40
2022-07-26T07:57:07.778Z,4.50
2022-07-26T07:59:39.030Z,4.18
2022-07-26T08:02:07.638Z,4.72
2022-07-26T08:04:35.614Z,4.30
2022-07-26T08:07:04.703Z,4.07
2022-07-26T08:09:33.737Z,4.60
2022-07-26T08:12:02.185Z,3.60
2022-07-26T08:14:29.974Z,3.72
2022-07-26T08:16:57.975Z,4.07
2022-07-26T08:19:27.574Z,4.07
2022-07-26T08:22:09.435Z,3.17
2022-07-26T08:24:37.334Z,3.60
2022-07-26T08:27:05.282Z,4.13
2022-07-26T08:29:32.881Z,3.80
2022-07-26T08:32:00.813Z,4.05
2022-07-26T08:34:28.539Z,4.37
2022-07-26T08:37:16.034Z,3.85
2022-07-26T08:39:44.229Z,3.85
2022-07-26T08:42:16.444Z,5.05
2022-07-26T08:44:48.069Z,4.30
2022-07-26T08:47:18.196Z,4.60
2022-07-26T08:50:06.072Z,4.47
2022-07-26T08:52:33.644Z,4.90
2022-07-26T08:55:01.150Z,4.78
2022-07-26T08:57:30.339Z,4.35
2022-07-26T09:00:20.961Z,4.10
2022-07-26T09:02:49.506Z,4.10
2022-07-26T09:05:27.676Z,4.30
2022-07-26T09:07:56.210Z,3.67
2022-07-26T09:10:24.533Z,3.75
2022-07-26T09:12:57.297Z,4.67
2022-07-26T09:15:28.846Z,3.58
2022-07-26T09:17:58.354Z,3.90
2022-07-26T09:20:31.392Z,3.35
2022-07-26T09:23:04.596Z,3.88
2022-07-26T09:25:37.518Z,4.07
2022-07-26T09:28:21.278Z,4.35
2022-07-26T09:30:54.237Z,4.18
2022-07-26T09:33:22.005Z,4.25
2022-07-26T09:36:07.298Z,3.90
2022-07-26T09:38:41.936Z,4.40
2022-07-26T09:41:28.779Z,4.18
2022-07-26T09:44:00.393Z,4.53
2022-07-26T09:46:33.266Z,4.07
2022-07-26T09:49:20.883Z,4.40
2022-07-26T09:51:50.686Z,4.10
2022-07-26T09:54:37.253Z,5.05
2022-07-26T09:57:04.887Z,4.93
2022-07-26T09:59:33.648Z,4.65
2022-07-26T10:02:01.595Z,4.70
2022-07-26T10:04:29.289Z,4.77
2022-07-26T10:07:00.669Z,4.57
2022-07-26T10:09:35.078Z,5.10
2022-07-26T10:12:07.440Z,4.65
2022-07-26T10:14:35.373Z,4.70
2022-07-26T10:17:31.307Z,4.93
2022-07-26T10:20:17.043Z,4.93
2022-07-26T10:22:46.778Z,4.53
2022-07-26T10:25:17.556Z,4.38
2022-07-26T10:27:47.128Z,5.40
2022-07-26T10:30:20.639Z,4.50
2022-07-26T10:33:00.296Z,4.35
2022-07-26T10:35:34.707Z,4.85
2022-07-26T10:38:10.739Z,4.72
2022-07-26T10:40:55.529Z,4.35
2022-07-26T10:43:40.042Z,4.20
2022-07-26T10:46:20.756Z,4.40
2022-07-26T10:49:09.302Z,4.07
2022-07-26T10:51:39.610Z,4.30
2022-07-26T10:54:13.491Z,4.00
2022-07-26T10:56:41.684Z,4.00
2022-07-26T10:59:09.272Z,4.10
2022-07-26T11:01:42.812Z,4.53
2022-07-26T11:04:20.565Z,4.40
2022-07-26T11:06:49.346Z,4.80
2022-07-26T11:09:19.173Z,3.83
2022-07-26T11:11:49.129Z,4.43
2022-07-26T11:14:18.392Z,4.53
2022-07-26T11:16:48.707Z,4.20
2022-07-26T11:19:25.487Z,4.10
2022-07-26T11:21:59.292Z,4.17
2022-07-26T11:24:27.859Z,4.72
2022-07-26T11:26:55.816Z,3.92
2022-07-26T11:29:38.546Z,4.43
2022-07-26T11:32:25.558Z,4.80
2022-07-26T11:35:01.191Z,4.30
2022-07-26T11:37:31.298Z,4.22
2022-07-26T11:39:59.031Z,4.55
2022-07-26T11:42:26.595Z,3.95
2022-07-26T11:44:54.345Z,4.20
2022-07-26T11:47:26.407Z,4.23
2022-07-26T11:50:14.242Z,4.53
2022-07-26T11:52:42.806Z,3.88
2022-07-26T11:55:11.283Z,4.22
2022-07-26T11:57:40.074Z,4.05
2022-07-26T12:00:08.426Z,4.70
2022-07-26T12:02:41.812Z,4.68
2022-07-26T12:05:16.560Z,4.00
2022-07-26T12:07:56.279Z,4.38
2022-07-26T12:10:24.452Z,4.10
2022-07-26T12:13:10.561Z,4.47
2022-07-26T12:15:53.032Z,4.40
2022-07-26T12:18:31.721Z,3.80
2022-07-26T12:21:08.679Z,4.15
2022-07-26T12:23:46.634Z,4.20
2022-07-26T12:26:29.270Z,4.00
2022-07-26T12:28:58.021Z,4.05
2022-07-26T12:31:31.359Z,3.15
2022-07-26T12:33:59.762Z,3.78
2022-07-26T12:36:29.775Z,3.15
2022-07-26T12:39:01.465Z,3.30
2022-07-26T12:41:38.704Z,3.33
2022-07-26T12:44:09.443Z,3.22
2022-07-26T12:46:37.489Z,3.22
2022-07-26T12:49:05.901Z,3.60
2022-07-26T12:51:34.331Z,3.20
2022-07-26T12:54:02.235Z,3.00
2022-07-26T12:56:29.940Z,3.42
2022-07-26T12:59:01.731Z,3.10
2022-07-26T13:01:31.819Z,2.70
2022-07-26T13:04:01.068Z,2.70
2022-07-26T13:06:28.952Z,2.45
2022-07-26T13:08:56.839Z,2.17
2022-07-26T13:11:25.372Z,2.28
2022-07-26T13:13:53.223Z,2.22
2022-07-26T13:16:20.796Z,1.93
2022-07-26T13:18:48.402Z,1.58
2022-07-26T13:21:16.160Z,1.80
2022-07-26T13:23:43.847Z,1.98
2022-07-26T13:26:11.665Z,1.60
2022-07-26T13:28:41.238Z,1.77
2022-07-26T13:31:10.110Z,1.85
2022-07-26T13:33:39.598Z,1.60
2022-07-26T13:36:07.446Z,1.95
2022-07-26T13:38:35.641Z,1.95
2022-07-26T13:41:03.978Z,1.90
2022-07-26T13:43:31.824Z,2.00
2022-07-26T13:45:59.533Z,1.98
2022-07-26T13:48:27.503Z,1.90
2022-07-26T13:50:55.865Z,2.10
2022-07-26T13:53:24.339Z,1.57
2022-07-26T13:55:52.441Z,2.08
2022-07-26T13:58:21.946Z,2.10
2022-07-26T14:00:51.318Z,2.03
2022-07-26T14:03:19.167Z,1.83
2022-07-26T14:05:46.845Z,2.20
2022-07-26T14:08:14.513Z,1.92
2022-07-26T14:10:42.418Z,2.10
2022-07-26T14:13:10.249Z,2.30
2022-07-26T14:15:37.930Z,2.40
2022-07-26T14:18:05.842Z,2.23
2022-07-26T14:20:33.451Z,2.10
2022-07-26T14:23:01.121Z,2.17
2022-07-26T14:25:29.169Z,1.85
2022-07-26T14:28:00.265Z,2.10
2022-07-26T14:30:27.888Z,2.30
2022-07-26T14:32:55.496Z,2.00
2022-07-26T14:35:23.184Z,2.42
2022-07-26T14:37:50.916Z,2.20
2022-07-26T14:40:18.729Z,2.03
2022-07-26T14:42:46.812Z,1.93
2022-07-26T14:45:15.283Z,2.20
2022-07-26T14:47:43.418Z,1.88
2022-07-26T14:50:12.756Z,1.92
2022-07-26T14:52:43.302Z,1.70
2022-07-26T14:55:11.607Z,1.97
2022-07-26T14:57:40.438Z,2.13
2022-07-26T15:00:11.254Z,1.40
2022-07-26T15:02:43.801Z,2.10
2022-07-26T15:05:13.203Z,1.92
2022-07-26T15:07:42.254Z,1.97
2022-07-26T15:10:11.899Z,1.58
2022-07-26T15:12:40.055Z,2.00
2022-07-26T15:15:08.957Z,2.20
2022-07-26T15:17:36.995Z,2.28
2022-07-26T15:20:05.560Z,2.03
2022-07-26T15:22:33.270Z,2.15
2022-07-26T15:25:00.884Z,2.63
2022-07-26T15:27:31.506Z,2.47
2022-07-26T15:30:04.313Z,2.33
2022-07-26T15:32:35.299Z,2.13
2022-07-26T15:35:03.400Z,2.20
2022-07-26T15:37:30.969Z,2.30
2022-07-26T15:39:58.831Z,2.50
2022-07-26T15:42:26.636Z,2.60
2022-07-26T15:44:55.780Z,2.50
2022-07-26T15:47:53.188Z,2.30
2022-07-26T15:50:14.424Z,2.10
2022-07-26T15:52:45.310Z,2.40
2022-07-26T15:55:14.389Z,2.40
2022-07-26T15:57:42.172Z,2.77
2022-07-26T16:00:12.152Z,2.63
2022-07-26T16:02:41.582Z,2.60
2022-07-26T16:05:10.605Z,2.35
2022-07-26T16:07:41.766Z,2.60
2022-07-26T16:10:12.569Z,2.80
2022-07-26T16:12:41.988Z,2.55
2022-07-26T16:15:11.115Z,2.50
2022-07-26T16:17:39.182Z,2.42
2022-07-26T16:20:07.844Z,2.58
2022-07-26T16:22:36.117Z,2.30
2022-07-26T16:25:06.161Z,2.30
2022-07-26T16:27:33.720Z,2.70
2022-07-26T16:30:01.305Z,2.50
2022-07-26T16:32:31.376Z,2.33
2022-07-26T16:34:59.030Z,2.30
2022-07-26T16:37:26.575Z,2.42
2022-07-26T16:39:55.886Z,2.30
2022-07-26T16:42:23.832Z,2.53
2022-07-26T16:44:51.602Z,2.60
2022-07-26T16:47:19.156Z,3.13
2022-07-26T16:49:46.839Z,2.22
2022-07-26T16:52:14.644Z,2.63
2022-07-26T16:54:43.022Z,2.50
2022-07-26T16:57:11.179Z,2.78
2022-07-26T16:59:38.834Z,2.40
2022-07-26T17:02:06.651Z,2.72
2022-07-26T17:04:41.442Z,2.65
2022-07-26T17:07:24.544Z,2.65
2022-07-26T17:09:55.686Z,2.55
2022-07-26T17:12:23.943Z,2.47
2022-07-26T17:14:52.832Z,1.83
2022-07-26T17:17:20.537Z,2.47
2022-07-26T17:19:48.191Z,2.40
2022-07-26T17:22:17.012Z,2.42
2022-07-26T17:24:44.648Z,2.47
2022-07-26T17:27:12.351Z,2.30
2022-07-26T17:29:40.118Z,2.22
2022-07-26T17:32:09.043Z,1.88
2022-07-26T17:34:37.503Z,2.40
2022-07-26T17:37:07.057Z,2.20
2022-07-26T17:39:51.908Z,2.45
2022-07-26T17:42:20.873Z,2.78
2022-07-26T17:44:48.815Z,2.63
2022-07-26T17:47:28.471Z,2.88
2022-07-26T17:50:37.691Z,2.60
2022-07-26T17:52:51.286Z,2.70
2022-07-26T17:55:19.867Z,2.42
2022-07-26T17:57:50.175Z,2.67
2022-07-26T18:00:19.699Z,2.40
2022-07-26T18:02:48.100Z,2.50
2022-07-26T18:05:16.878Z,2.35
2022-07-26T18:07:44.526Z,2.60
2022-07-26T18:10:12.337Z,2.50
2022-07-26T18:12:39.956Z,2.83
2022-07-26T18:15:08.320Z,2.00
2022-07-26T18:17:38.523Z,2.40
2022-07-26T18:20:12.746Z,2.80
2022-07-26T18:22:40.760Z,2.50
2022-07-26T18:25:08.793Z,2.10
2022-07-26T18:27:36.424Z,2.37
2022-07-26T18:30:05.679Z,2.25
2022-07-26T18:32:34.428Z,2.00
2022-07-26T18:35:01.985Z,2.40
2022-07-26T18:37:30.534Z,2.42
2022-07-26T18:39:59.912Z,2.17
2022-07-26T18:42:27.594Z,2.17
2022-07-26T18:44:55.159Z,2.40
2022-07-26T18:47:23.238Z,1.90
2022-07-26T18:49:51.403Z,2.13
2022-07-26T18:52:28.640Z,2.40
2022-07-26T18:55:02.719Z,2.08
2022-07-26T18:57:35.088Z,2.33
2022-07-26T19:00:05.812Z,2.60
2022-07-26T19:02:33.505Z,2.40
2022-07-26T19:05:01.176Z,2.27
2022-07-26T19:07:28.908Z,2.30
2022-07-26T19:09:58.565Z,2.47
2022-07-26T19:12:27.808Z,2.00
2022-07-26T19:15:00.223Z,1.98
2022-07-26T19:17:30.968Z,2.37
2022-07-26T19:20:00.949Z,2.00
2022-07-26T19:22:30.607Z,2.33
2022-07-26T19:24:58.319Z,1.80
2022-07-26T19:27:26.368Z,2.00
2022-07-26T19:29:54.933Z,2.00
2022-07-26T19:32:22.485Z,2.20
2022-07-26T19:34:50.480Z,1.90
2022-07-26T19:37:22.917Z,2.25
2022-07-26T19:39:52.460Z,2.00
2022-07-26T19:42:20.329Z,2.00
2022-07-26T19:44:48.461Z,2.50
2022-07-26T19:47:16.029Z,2.08
2022-07-26T19:49:43.862Z,2.38
2022-07-26T19:52:11.997Z,2.55
2022-07-26T19:54:40.586Z,2.60
2022-07-26T19:57:08.731Z,2.50
2022-07-26T19:59:36.374Z,2.70
2022-07-26T20:02:04.222Z,2.20
2022-07-26T20:04:31.985Z,2.38
2022-07-26T20:07:00.964Z,2.50
2022-07-26T20:09:29.992Z,2.40
2022-07-26T20:11:58.317Z,2.80
2022-07-26T20:14:26.478Z,2.42
2022-07-26T20:16:57.126Z,2.60
2022-07-26T20:19:27.039Z,2.40
2022-07-26T20:21:55.019Z,2.40
2022-07-26T20:24:22.710Z,2.28
2022-07-26T20:26:50.355Z,2.97
2022-07-26T20:29:17.930Z,2.65
2022-07-26T20:31:45.946Z,2.70
2022-07-26T20:34:13.622Z,2.33
2022-07-26T20:36:41.399Z,2.35
2022-07-26T20:39:09.691Z,2.60
2022-07-26T20:41:37.652Z,2.67
2022-07-26T20:44:07.038Z,3.00
2022-07-26T20:46:40.179Z,3.15
2022-07-26T20:49:09.442Z,2.63
2022-07-26T20:51:37.784Z,2.70
2022-07-26T20:54:05.499Z,2.50
2022-07-26T20:56:33.407Z,2.83
2022-07-26T20:59:02.503Z,3.13
2022-07-26T21:01:31.636Z,2.65
2022-07-26T21:03:59.857Z,2.38
2022-07-26T21:06:29.506Z,3.00
2022-07-26T21:08:58.046Z,2.83
2022-07-26T21:11:26.060Z,3.15
2022-07-26T21:14:49.667Z,2.85
2022-07-26T21:18:31.407Z,3.33
2022-07-26T21:22:13.342Z,2.60
2022-07-26T21:26:00.389Z,2.57
2022-07-26T21:29:42.567Z,2.90
2022-07-26T21:33:26.271Z,2.80
2022-07-26T21:37:08.514Z,3.00
2022-07-26T21:40:50.430Z,3.05
2022-07-26T21:44:32.309Z,2.93
2022-07-26T21:48:14.390Z,3.13
2022-07-26T21:52:00.134Z,2.85
2022-07-26T21:55:41.695Z,2.97
2022-07-26T21:59:23.340Z,2.75
2022-07-26T22:03:05.237Z,2.90
2022-07-26T22:06:47.539Z,3.13
2022-07-26T22:10:29.491Z,3.35
2022-07-26T22:14:11.468Z,3.08
2022-07-26T22:17:53.409Z,3.03
2022-07-26T22:20:39.917Z,3.90
2022-07-26T22:23:12.776Z,3.30
2022-07-26T22:25:40.576Z,3.03
2022-07-26T22:28:08.956Z,3.45
2022-07-26T22:30:36.938Z,3.80
2022-07-26T22:33:07.844Z,3.13
2022-07-26T22:35:36.800Z,2.88
2022-07-26T22:38:07.059Z,3.47
2022-07-26T22:40:34.814Z,3.10
2022-07-26T22:43:02.761Z,3.28
2022-07-26T22:45:31.071Z,3.00
2022-07-26T22:47:58.674Z,3.28
2022-07-26T22:50:26.208Z,2.97
2022-07-26T22:52:53.835Z,2.80
2022-07-26T22:55:21.838Z,2.97
2022-07-26T22:57:49.577Z,2.90
2022-07-26T23:00:19.138Z,3.00
2022-07-26T23:02:48.324Z,3.33
2022-07-26T23:05:16.615Z,3.40
2022-07-26T23:07:47.181Z,2.97
2022-07-26T23:10:17.060Z,3.07
2022-07-26T23:12:45.449Z,3.00
2022-07-26T23:15:13.539Z,3.28
2022-07-26T23:17:41.365Z,3.13
2022-07-26T23:20:10.405Z,3.30
2022-07-26T23:22:38.781Z,3.27
2022-07-26T23:25:06.617Z,3.28
2022-07-26T23:27:34.130Z,2.65
2022-07-26T23:30:01.671Z,3.15
2022-07-26T23:32:30.890Z,3.20
2022-07-26T23:34:58.307Z,2.83
2022-07-26T23:37:25.760Z,2.72
2022-07-26T23:39:53.251Z,2.90
2022-07-26T23:42:20.755Z,3.10
2022-07-26T23:44:48.240Z,2.95
2022-07-26T23:47:15.722Z,3.13
2022-07-26T23:49:43.209Z,2.72
2022-07-26T23:52:10.657Z,3.03
2022-07-26T23:54:38.045Z,3.13
2022-07-26T23:57:05.520Z,3.50
2022-07-26T23:59:32.933Z,3.00
